createdAt,value
2019-04-21T00:01:47.430Z,0.00
2019-04-21T00:16:57.473Z,0.00
2019-04-21T00:32:10.498Z,0.00
2019-04-21T00:47:13.965Z,0.00
2019-04-21T01:02:27.882Z,0.00
2019-04-21T01:17:27.787Z,0.00
2019-04-21T01:32:35.703Z,0.00
2019-04-21T01:47:36.121Z,0.00
2019-04-21T02:02:43.728Z,0.00
2019-04-21T02:17:55.142Z,0.00
2019-04-21T02:33:16.577Z,0.00
2019-04-21T02:48:21.186Z,0.00
2019-04-21T03:03:23.034Z,0.00
2019-04-21T03:48:36.642Z,5.62
2019-04-21T04:03:55.363Z,22.50
2019-04-21T04:33:57.467Z,95.62
2019-04-21T04:49:02.019Z,140.62
2019-04-21T05:04:05.919Z,202.50
2019-04-21T05:34:07.491Z,298.12
2019-04-21T05:49:10.560Z,337.50
2019-04-21T06:04:34.109Z,405.00
2019-04-21T06:19:25.542Z,517.50
2019-04-21T06:34:37.843Z,697.50
2019-04-21T06:49:31.390Z,922.50
2019-04-21T07:19:52.415Z,1440.00
2019-04-21T07:34:51.425Z,1721.25
2019-04-21T07:49:58.877Z,2008.12
2019-04-21T08:05:02.351Z,2261.25
2019-04-21T08:20:01.691Z,2525.62
2019-04-21T08:35:34.283Z,2790.00
2019-04-21T08:50:15.365Z,3043.12
2019-04-21T09:05:17.725Z,3318.75
2019-04-21T09:20:26.529Z,3498.75
2019-04-21T09:35:12.383Z,3706.88
2019-04-21T09:50:15.144Z,3931.88
2019-04-21T10:05:16.876Z,4083.75
2019-04-21T10:20:17.800Z,4033.12
2019-04-21T10:35:21.136Z,4128.75
2019-04-21T10:50:24.485Z,4246.88
2019-04-21T11:05:24.932Z,4218.75
2019-04-21T11:20:24.839Z,4145.62
2019-04-21T11:35:25.492Z,4128.75
2019-04-21T11:50:26.137Z,4095.00
2019-04-21T12:05:27.577Z,4010.62
2019-04-21T12:20:28.658Z,3886.88
2019-04-21T12:35:29.787Z,3813.75
2019-04-21T12:50:30.069Z,3718.12
2019-04-21T13:05:31.628Z,3571.88
2019-04-21T13:20:32.111Z,3386.25
2019-04-21T13:35:33.281Z,3172.50
2019-04-21T13:50:35.155Z,2891.25
2019-04-21T14:05:36.233Z,2604.38
2019-04-21T14:20:37.351Z,2160.00
2019-04-21T14:35:38.803Z,1963.12
2019-04-21T14:50:39.998Z,1749.38
2019-04-21T15:05:39.920Z,1321.88
2019-04-21T15:20:40.509Z,1102.50
2019-04-21T15:35:40.691Z,815.62
2019-04-21T15:50:41.835Z,545.62
2019-04-21T16:05:42.637Z,348.75
2019-04-21T16:20:43.943Z,241.88
2019-04-21T16:35:44.075Z,202.50
2019-04-21T16:50:45.682Z,168.75
2019-04-21T17:05:46.279Z,140.62
2019-04-21T17:20:53.509Z,112.50
2019-04-21T17:35:53.052Z,84.38
2019-04-21T17:50:53.869Z,56.25
2019-04-21T18:06:07.563Z,28.12
2019-04-21T18:20:59.156Z,5.62
2019-04-21T18:36:01.940Z,0.00
2019-04-21T18:51:06.243Z,0.00
2019-04-21T19:06:12.786Z,0.00
2019-04-21T19:21:24.239Z,0.00
2019-04-21T19:36:19.311Z,0.00
2019-04-21T19:51:33.805Z,0.00
2019-04-21T20:06:39.048Z,0.00
2019-04-21T20:21:31.032Z,0.00
2019-04-21T20:36:51.144Z,0.00
2019-04-21T20:52:02.350Z,0.00
2019-04-21T21:07:01.419Z,0.00
2019-04-21T21:21:58.811Z,0.00
2019-04-21T21:37:21.705Z,0.00
2019-04-21T21:52:07.012Z,0.00
2019-04-21T22:07:10.324Z,0.00
2019-04-21T22:22:22.860Z,0.00
2019-04-21T22:37:30.692Z,0.00
2019-04-21T22:52:24.576Z,0.00
2019-04-21T23:07:28.359Z,0.00
2019-04-21T23:22:58.556Z,0.00
2019-04-21T23:37:41.650Z,0.00
2019-04-21T23:52:39.758Z,0.00
